createdAt,value
2022-10-23T00:01:45.759Z,100917.83
2022-10-23T00:04:15.677Z,100918.47
2022-10-23T00:06:46.439Z,100910.58
2022-10-23T00:09:19.961Z,100910.79
2022-10-23T00:11:51.057Z,100911.07
2022-10-23T00:14:30.688Z,100915.69
2022-10-23T00:16:57.116Z,100917.08
2022-10-23T00:19:23.478Z,100916.51
2022-10-23T00:21:49.947Z,100915.54
2022-10-23T00:24:16.463Z,100915.85
2022-10-23T00:26:42.889Z,100920.14
2022-10-23T00:29:10.237Z,100921.14
2022-10-23T00:31:37.062Z,100917.89
2022-10-23T00:34:04.181Z,100919.29
2022-10-23T00:36:31.271Z,100919.30
2022-10-23T00:39:00.192Z,100916.60
2022-10-23T00:41:29.643Z,100916.75
2022-10-23T00:44:31.490Z,100914.55
2022-10-23T00:46:59.892Z,100918.09
2022-10-23T00:49:28.465Z,100923.52
2022-10-23T00:52:01.667Z,100923.89
2022-10-23T00:54:34.030Z,100921.61
2022-10-23T00:57:03.641Z,100917.65
2022-10-23T00:59:31.794Z,100912.64
2022-10-23T01:01:59.068Z,100911.48
2022-10-23T01:04:27.500Z,100907.91
2022-10-23T01:06:59.724Z,100910.36
2022-10-23T01:09:35.049Z,100906.36
2022-10-23T01:12:04.501Z,100906.22
2022-10-23T01:14:49.935Z,100897.27
2022-10-23T01:17:48.192Z,100894.39
2022-10-23T01:20:38.922Z,100892.37
2022-10-23T01:23:23.533Z,100896.34
2022-10-23T01:26:24.245Z,100895.84
2022-10-23T01:28:59.039Z,100892.29
2022-10-23T01:31:36.340Z,100893.11
2022-10-23T01:34:16.164Z,100899.23
2022-10-23T01:36:51.411Z,100897.63
2022-10-23T01:39:28.236Z,100898.19
2022-10-23T01:42:26.354Z,100889.75
2022-10-23T01:45:16.644Z,100885.15
2022-10-23T01:48:12.090Z,100882.56
2022-10-23T01:53:49.565Z,100874.21
2022-10-23T01:56:20.384Z,100867.13
2022-10-23T01:58:51.194Z,100862.86
2022-10-23T02:01:22.751Z,100865.39
2022-10-23T02:03:52.409Z,100863.56
2022-10-23T02:06:21.655Z,100860.84
2022-10-23T02:08:48.788Z,100867.02
2022-10-23T02:11:21.830Z,100869.11
2022-10-23T02:14:02.576Z,100871.20
2022-10-23T02:16:35.097Z,100871.09
2022-10-23T02:19:08.335Z,100869.80
2022-10-23T02:22:08.040Z,100871.23
2022-10-23T02:25:00.967Z,100867.63
2022-10-23T02:27:49.451Z,100862.92
2022-10-23T02:30:27.062Z,100859.30
2022-10-23T02:33:11.028Z,100854.27
2022-10-23T02:35:50.880Z,100848.48
2022-10-23T02:38:37.042Z,100854.55
2022-10-23T02:41:18.795Z,100857.84
2022-10-23T02:44:02.781Z,100855.89
2022-10-23T02:47:10.241Z,100849.73
2022-10-23T02:49:59.143Z,100847.44
2022-10-23T02:52:42.575Z,100849.48
2022-10-23T02:55:44.495Z,100846.27
2022-10-23T02:58:20.542Z,100853.09
2022-10-23T03:00:57.062Z,100847.85
2022-10-23T03:04:02.785Z,100844.91
2022-10-23T03:06:37.483Z,100843.98
2022-10-23T03:09:14.020Z,100845.58
2022-10-23T03:11:40.531Z,100848.96
2022-10-23T03:14:09.942Z,100842.61
2022-10-23T03:16:36.767Z,100831.61
2022-10-23T03:19:04.775Z,100827.80
2022-10-23T03:21:35.458Z,100821.87
2022-10-23T03:24:01.856Z,100821.69
2022-10-23T03:26:35.525Z,100819.52
2022-10-23T03:29:05.873Z,100821.70
2022-10-23T03:31:38.296Z,100816.51
2022-10-23T03:34:13.341Z,100815.20
2022-10-23T03:36:50.125Z,100816.21
2022-10-23T03:39:30.106Z,100813.77
2022-10-23T03:41:58.728Z,100810.45
2022-10-23T03:44:25.133Z,100809.57
2022-10-23T03:46:52.028Z,100806.52
2022-10-23T03:49:18.478Z,100803.98
2022-10-23T03:51:52.099Z,100807.26
2022-10-23T03:54:26.448Z,100812.80
2022-10-23T03:56:56.637Z,100812.53
2022-10-23T03:59:28.487Z,100805.46
2022-10-23T04:01:57.593Z,100799.92
2022-10-23T04:04:26.019Z,100797.37
2022-10-23T04:06:57.888Z,100797.84
2022-10-23T04:09:24.437Z,100797.52
2022-10-23T04:11:50.794Z,100796.81
2022-10-23T04:14:17.520Z,100805.44
2022-10-23T04:16:48.029Z,100807.19
2022-10-23T04:19:17.563Z,100810.64
2022-10-23T04:21:44.743Z,100809.66
2022-10-23T04:24:18.428Z,100811.05
2022-10-23T04:26:47.863Z,100811.46
2022-10-23T04:29:24.694Z,100812.41
2022-10-23T04:31:57.975Z,100809.48
2022-10-23T04:34:32.410Z,100812.06
2022-10-23T04:37:08.882Z,100805.16
2022-10-23T04:39:44.870Z,100800.92
2022-10-23T04:42:13.851Z,100802.36
2022-10-23T04:44:40.273Z,100800.55
2022-10-23T04:47:11.748Z,100797.26
2022-10-23T04:49:38.121Z,100794.21
2022-10-23T04:52:05.115Z,100794.84
2022-10-23T04:54:41.026Z,100799.28
2022-10-23T04:57:07.397Z,100800.87
2022-10-23T04:59:36.869Z,100802.77
2022-10-23T05:02:07.176Z,100795.33
2022-10-23T05:04:45.412Z,100795.81
2022-10-23T05:07:19.416Z,100800.88
2022-10-23T05:09:46.006Z,100803.33
2022-10-23T05:12:12.379Z,100797.69
2022-10-23T05:14:39.139Z,100799.66
2022-10-23T05:17:17.373Z,100797.40
2022-10-23T05:19:49.657Z,100793.29
2022-10-23T05:22:19.498Z,100789.25
2022-10-23T05:24:49.672Z,100788.86
2022-10-23T05:27:20.592Z,100794.70
2022-10-23T05:29:55.395Z,100791.02
2022-10-23T05:32:28.762Z,100788.12
2022-10-23T05:34:59.181Z,100782.63
2022-10-23T05:37:37.164Z,100777.95
2022-10-23T05:40:11.186Z,100768.39
2022-10-23T05:42:40.835Z,100769.04
2022-10-23T05:45:08.947Z,100772.41
2022-10-23T05:47:38.650Z,100780.14
2022-10-23T05:50:08.664Z,100778.09
2022-10-23T05:52:35.872Z,100776.61
2022-10-23T05:55:09.581Z,100774.40
2022-10-23T05:57:35.950Z,100778.41
2022-10-23T06:00:07.776Z,100774.42
2022-10-23T06:02:37.464Z,100773.04
2022-10-23T06:05:15.813Z,100771.05
2022-10-23T06:07:49.758Z,100767.21
2022-10-23T06:10:30.195Z,100765.09
2022-10-23T06:13:07.564Z,100762.38
2022-10-23T06:15:34.150Z,100765.20
2022-10-23T06:18:04.981Z,100767.10
2022-10-23T06:20:33.146Z,100767.59
2022-10-23T06:23:00.114Z,100769.36
2022-10-23T06:25:26.822Z,100769.44
2022-10-23T06:27:53.189Z,100769.61
2022-10-23T06:30:20.369Z,100768.40
2022-10-23T06:32:48.188Z,100767.73
2022-10-23T06:35:16.291Z,100768.31
2022-10-23T06:37:43.772Z,100767.34
2022-10-23T06:40:20.245Z,100767.22
2022-10-23T06:42:53.803Z,100768.73
2022-10-23T06:45:30.684Z,100767.53
2022-10-23T06:47:57.098Z,100763.07
2022-10-23T06:50:32.159Z,100761.26
2022-10-23T06:52:58.632Z,100763.05
2022-10-23T06:55:25.297Z,100757.86
2022-10-23T06:57:51.780Z,100751.64
2022-10-23T07:00:21.821Z,100747.00
2022-10-23T07:02:48.893Z,100744.21
2022-10-23T07:05:22.549Z,100741.94
2022-10-23T07:07:52.782Z,100740.05
2022-10-23T07:10:30.584Z,100735.04
2022-10-23T07:13:02.857Z,100734.98
2022-10-23T07:15:40.990Z,100741.27
2022-10-23T07:18:07.634Z,100745.79
2022-10-23T07:20:34.305Z,100747.39
2022-10-23T07:23:03.700Z,100747.50
2022-10-23T07:25:30.292Z,100743.05
2022-10-23T07:27:57.055Z,100745.02
2022-10-23T07:30:24.249Z,100743.22
2022-10-23T07:32:56.149Z,100740.36
2022-10-23T07:35:26.247Z,100741.80
2022-10-23T07:37:55.459Z,100731.34
2022-10-23T07:40:29.252Z,100729.88
2022-10-23T07:42:58.544Z,100728.72
2022-10-23T07:45:35.330Z,100734.56
2022-10-23T07:48:01.821Z,100737.57
2022-10-23T07:50:28.271Z,100736.31
2022-10-23T07:52:54.696Z,100735.60
2022-10-23T07:55:21.716Z,100729.62
2022-10-23T07:57:48.307Z,100730.59
2022-10-23T08:00:14.883Z,100737.23
2022-10-23T08:02:44.711Z,100739.66
2022-10-23T08:05:11.304Z,100732.08
2022-10-23T08:07:37.775Z,100728.84
2022-10-23T08:10:04.708Z,100725.27
2022-10-23T08:12:31.144Z,100719.39
2022-10-23T08:14:57.513Z,100712.95
2022-10-23T08:17:26.278Z,100715.89
2022-10-23T08:19:55.220Z,100714.91
2022-10-23T08:22:21.665Z,100712.09
2022-10-23T08:24:48.198Z,100708.92
2022-10-23T08:27:14.638Z,100710.31
2022-10-23T08:29:42.786Z,100705.97
2022-10-23T08:32:12.653Z,100709.14
2022-10-23T08:34:39.966Z,100709.48
2022-10-23T08:37:06.878Z,100709.27
2022-10-23T08:39:33.650Z,100711.27
2022-10-23T08:42:01.858Z,100704.84
2022-10-23T08:44:35.350Z,100701.92
2022-10-23T08:47:08.406Z,100703.06
2022-10-23T08:49:56.985Z,100703.83
2022-10-23T08:52:57.153Z,100701.30
2022-10-23T08:55:29.889Z,100687.09
2022-10-23T08:58:05.722Z,100682.54
2022-10-23T09:00:33.147Z,100681.29
2022-10-23T09:03:04.655Z,100681.86
2022-10-23T09:05:54.551Z,100681.82
2022-10-23T09:08:46.484Z,100681.40
2022-10-23T09:11:41.473Z,100686.95
2022-10-23T09:14:31.813Z,100682.49
2022-10-23T09:17:35.752Z,100683.80
2022-10-23T09:20:41.835Z,100684.44
2022-10-23T09:23:26.618Z,100680.58
2022-10-23T09:26:06.999Z,100682.66
2022-10-23T09:28:52.677Z,100683.36
2022-10-23T09:31:23.159Z,100685.31
2022-10-23T09:34:01.452Z,100692.09
2022-10-23T09:36:29.504Z,100703.50
2022-10-23T09:39:05.288Z,100701.62
2022-10-23T09:41:36.881Z,100699.27
2022-10-23T09:44:19.870Z,100699.60
2022-10-23T09:47:02.889Z,100691.89
2022-10-23T09:49:36.231Z,100696.39
2022-10-23T09:52:10.524Z,100694.07
2022-10-23T09:54:48.470Z,100692.23
2022-10-23T09:57:47.859Z,100684.70
2022-10-23T10:03:29.110Z,100675.79
2022-10-23T10:06:15.061Z,100675.13
2022-10-23T10:08:50.134Z,100675.02
2022-10-23T10:11:24.820Z,100669.31
2022-10-23T10:14:19.493Z,100662.05
2022-10-23T10:16:53.709Z,100661.32
2022-10-23T10:19:34.461Z,100658.48
2022-10-23T10:22:30.683Z,100654.80
2022-10-23T10:25:29.537Z,100648.51
2022-10-23T10:28:23.132Z,100650.88
2022-10-23T10:30:59.816Z,100636.67
2022-10-23T10:33:53.092Z,100633.81
2022-10-23T10:36:54.619Z,100632.68
2022-10-23T10:39:31.970Z,100630.14
2022-10-23T10:42:28.008Z,100628.17
2022-10-23T10:45:15.723Z,100618.57
2022-10-23T10:48:04.060Z,100613.58
2022-10-23T10:50:49.404Z,100612.05
2022-10-23T10:53:59.755Z,100611.98
2022-10-23T10:56:42.173Z,100610.17
2022-10-23T10:59:19.151Z,100604.66
2022-10-23T11:02:08.133Z,100602.34
2022-10-23T11:05:04.320Z,100594.17
2022-10-23T11:07:41.713Z,100593.86
2022-10-23T11:10:18.251Z,100588.55
2022-10-23T11:12:46.829Z,100586.41
2022-10-23T11:15:40.295Z,100590.08
2022-10-23T11:18:19.016Z,100586.80
2022-10-23T11:20:56.496Z,100582.66
2022-10-23T11:23:49.926Z,100577.80
2022-10-23T11:26:44.298Z,100571.75
2022-10-23T11:29:34.101Z,100566.41
2022-10-23T11:32:13.617Z,100564.16
2022-10-23T11:34:54.188Z,100562.77
2022-10-23T11:37:26.787Z,100559.05
2022-10-23T11:40:20.564Z,100550.09
2022-10-23T11:42:52.858Z,100547.13
2022-10-23T11:45:46.975Z,100543.71
2022-10-23T11:48:36.940Z,100533.39
2022-10-23T11:51:05.295Z,100530.15
2022-10-23T11:53:31.718Z,100529.64
2022-10-23T11:56:00.167Z,100529.27
2022-10-23T11:58:50.068Z,100520.38
2022-10-23T12:01:46.861Z,100511.06
2022-10-23T12:04:14.607Z,100507.23
2022-10-23T12:07:14.910Z,100496.81
2022-10-23T12:09:54.329Z,100492.59
2022-10-23T12:12:36.899Z,100492.64
2022-10-23T12:15:35.091Z,100491.56
2022-10-23T12:18:29.135Z,100487.42
2022-10-23T12:21:04.854Z,100486.52
2022-10-23T12:23:54.228Z,100482.13
2022-10-23T12:26:38.812Z,100476.69
2022-10-23T12:29:41.101Z,100466.15
2022-10-23T12:32:38.371Z,100469.26
2022-10-23T12:35:13.503Z,100468.67
2022-10-23T12:38:20.602Z,100469.90
2022-10-23T12:41:05.572Z,100464.31
2022-10-23T12:43:37.288Z,100453.77
2022-10-23T12:46:35.773Z,100447.38
2022-10-23T12:49:12.559Z,100440.87
2022-10-23T12:51:39.090Z,100433.00
2022-10-23T12:54:18.394Z,100423.22
2022-10-23T12:56:46.286Z,100409.81
2022-10-23T12:59:23.458Z,100401.54
2022-10-23T13:01:52.756Z,100404.16
2022-10-23T13:04:34.737Z,100399.36
2022-10-23T13:07:06.766Z,100399.13
2022-10-23T13:09:42.856Z,100399.68
2022-10-23T13:12:21.403Z,100396.37
2022-10-23T13:17:38.774Z,100395.41
2022-10-23T13:20:22.230Z,100395.10
2022-10-23T13:22:56.332Z,100389.24
2022-10-23T13:25:31.662Z,100384.54
2022-10-23T13:28:14.999Z,100380.50
2022-10-23T13:30:46.129Z,100376.84
2022-10-23T13:33:24.179Z,100365.11
2022-10-23T13:36:09.187Z,100353.27
2022-10-23T13:38:37.752Z,100341.41
2022-10-23T13:41:11.088Z,100336.23
2022-10-23T13:43:37.674Z,100340.59
2022-10-23T13:46:04.121Z,100341.54
2022-10-23T13:48:30.629Z,100340.77
2022-10-23T13:51:11.723Z,100345.15
2022-10-23T13:53:38.169Z,100349.03
2022-10-23T13:56:04.784Z,100356.92
2022-10-23T13:58:31.171Z,100358.55
2022-10-23T14:00:58.661Z,100350.02
2022-10-23T14:03:25.440Z,100345.85
2022-10-23T14:05:52.217Z,100347.56
2022-10-23T14:08:22.126Z,100350.81
2022-10-23T14:10:53.814Z,100344.40
2022-10-23T14:13:20.464Z,100342.18
2022-10-23T14:15:56.145Z,100340.01
2022-10-23T14:18:24.743Z,100336.69
2022-10-23T14:20:56.379Z,100334.02
2022-10-23T14:23:33.137Z,100326.29
2022-10-23T14:26:17.459Z,100323.65
2022-10-23T14:28:53.116Z,100313.61
2022-10-23T14:31:19.645Z,100307.86
2022-10-23T14:33:46.709Z,100302.65
2022-10-23T14:36:13.999Z,100302.66
2022-10-23T14:38:40.479Z,100302.58
2022-10-23T14:41:15.375Z,100294.10
2022-10-23T14:43:43.278Z,100289.05
2022-10-23T14:46:14.562Z,100281.25
2022-10-23T14:48:52.732Z,100276.31
2022-10-23T14:51:50.624Z,100262.35
2022-10-23T14:54:25.654Z,100266.22
2022-10-23T14:56:53.219Z,100277.23
2022-10-23T14:59:24.936Z,100281.79
2022-10-23T15:01:59.930Z,100277.20
2022-10-23T15:07:10.932Z,100251.35
2022-10-23T15:09:39.576Z,100241.99
2022-10-23T15:12:07.637Z,100235.58
2022-10-23T15:14:34.607Z,100231.09
2022-10-23T15:17:01.456Z,100224.27
2022-10-23T15:19:32.790Z,100213.98
2022-10-23T15:22:00.006Z,100205.17
2022-10-23T15:24:29.628Z,100200.75
2022-10-23T15:27:00.300Z,100199.41
2022-10-23T15:29:34.013Z,100200.85
2022-10-23T15:32:01.733Z,100201.52
2022-10-23T15:34:32.445Z,100203.41
2022-10-23T15:37:00.126Z,100206.17
2022-10-23T15:39:33.582Z,100206.20
2022-10-23T15:42:00.330Z,100197.48
2022-10-23T15:44:29.126Z,100187.92
2022-10-23T15:47:00.031Z,100187.73
2022-10-23T15:49:29.619Z,100197.74
2022-10-23T15:51:56.800Z,100190.77
2022-10-23T15:54:26.960Z,100195.39
2022-10-23T15:56:56.531Z,100194.77
2022-10-23T15:59:27.816Z,100193.73
2022-10-23T16:01:58.094Z,100197.05
2022-10-23T16:04:29.915Z,100197.36
2022-10-23T16:07:04.764Z,100188.21
2022-10-23T16:09:31.191Z,100179.73
2022-10-23T16:12:01.212Z,100178.77
2022-10-23T16:14:28.601Z,100167.52
2022-10-23T16:16:54.984Z,100149.46
2022-10-23T16:19:21.429Z,100139.40
2022-10-23T16:21:47.808Z,100130.67
2022-10-23T16:24:14.225Z,100126.35
2022-10-23T16:26:42.785Z,100120.66
2022-10-23T16:29:12.117Z,100127.17
2022-10-23T16:31:42.813Z,100121.49
2022-10-23T16:34:13.265Z,100129.98
2022-10-23T16:36:40.493Z,100129.20
2022-10-23T16:39:09.516Z,100127.41
2022-10-23T16:41:43.354Z,100115.73
2022-10-23T16:44:14.814Z,100115.09
2022-10-23T16:46:53.133Z,100115.77
2022-10-23T16:49:22.200Z,100117.59
2022-10-23T16:51:48.621Z,100120.02
2022-10-23T16:54:17.546Z,100127.97
2022-10-23T16:56:53.275Z,100122.50
2022-10-23T16:59:19.798Z,100112.40
2022-10-23T17:01:46.753Z,100113.05
2022-10-23T17:04:17.441Z,100113.29
2022-10-23T17:06:47.887Z,100108.39
2022-10-23T17:09:17.029Z,100104.27
2022-10-23T17:11:46.152Z,100093.42
2022-10-23T17:14:21.919Z,100081.55
2022-10-23T17:16:59.630Z,100068.30
2022-10-23T17:19:46.440Z,100063.30
2022-10-23T17:22:20.199Z,100055.80
2022-10-23T17:24:50.134Z,100060.52
2022-10-23T17:27:22.867Z,100071.04
2022-10-23T17:29:49.589Z,100071.26
2022-10-23T17:32:19.104Z,100072.81
2022-10-23T17:34:48.069Z,100068.36
2022-10-23T17:37:17.531Z,100063.66
2022-10-23T17:39:54.344Z,100066.52
2022-10-23T17:42:29.749Z,100070.20
2022-10-23T17:45:06.469Z,100089.62
2022-10-23T17:47:44.443Z,100094.17
2022-10-23T17:50:24.597Z,100099.23
2022-10-23T17:52:51.067Z,100105.30
2022-10-23T17:55:20.439Z,100111.76
2022-10-23T17:57:54.035Z,100116.71
2022-10-23T18:00:20.723Z,100122.48
2022-10-23T18:02:49.352Z,100127.09
2022-10-23T18:05:16.571Z,100131.40
2022-10-23T18:07:44.340Z,100140.90
2022-10-23T18:10:13.784Z,100162.06
2022-10-23T18:12:43.105Z,100169.05
2022-10-23T18:15:11.764Z,100183.21
2022-10-23T18:17:38.933Z,100196.52
2022-10-23T18:20:05.909Z,100206.45
2022-10-23T18:22:33.206Z,100214.06
2022-10-23T18:25:05.252Z,100212.92
2022-10-23T18:27:40.482Z,100201.66
2022-10-23T18:30:07.586Z,100194.57
2022-10-23T18:32:33.995Z,100193.11
2022-10-23T18:35:04.776Z,100189.46
2022-10-23T18:37:33.849Z,100190.05
2022-10-23T18:40:02.954Z,100184.98
2022-10-23T18:42:29.349Z,100186.23
2022-10-23T18:44:58.079Z,100191.02
2022-10-23T18:47:25.310Z,100194.95
2022-10-23T18:49:52.523Z,100206.61
2022-10-23T18:52:27.021Z,100212.05
2022-10-23T18:54:56.840Z,100215.00
2022-10-23T18:57:28.734Z,100217.22
2022-10-23T19:00:05.586Z,100223.43
2022-10-23T19:02:33.874Z,100224.88
2022-10-23T19:05:01.423Z,100221.38
2022-10-23T19:07:28.147Z,100218.28
2022-10-23T19:09:55.853Z,100218.75
2022-10-23T19:12:23.039Z,100214.95
2022-10-23T19:14:50.104Z,100213.19
2022-10-23T19:17:24.656Z,100213.96
2022-10-23T19:20:03.246Z,100212.65
2022-10-23T19:22:35.946Z,100213.15
2022-10-23T19:25:17.896Z,100217.38
2022-10-23T19:27:48.987Z,100218.89
2022-10-23T19:30:22.681Z,100221.06
2022-10-23T19:32:53.225Z,100218.57
2022-10-23T19:35:21.893Z,100222.86
2022-10-23T19:37:52.212Z,100222.48
2022-10-23T19:40:26.070Z,100218.60
2022-10-23T19:45:35.976Z,100219.92
2022-10-23T19:48:02.413Z,100210.35
2022-10-23T19:50:28.910Z,100206.08
2022-10-23T19:52:55.721Z,100203.81
2022-10-23T19:55:30.129Z,100202.72
2022-10-23T19:57:57.548Z,100213.33
2022-10-23T20:00:30.528Z,100210.82
2022-10-23T20:03:04.266Z,100213.87
2022-10-23T20:05:42.573Z,100209.02
2022-10-23T20:08:16.599Z,100201.91
2022-10-23T20:10:46.900Z,100195.36
2022-10-23T20:13:19.959Z,100190.38
2022-10-23T20:15:47.090Z,100185.81
2022-10-23T20:18:13.741Z,100181.29
2022-10-23T20:20:42.580Z,100171.02
2022-10-23T20:23:09.456Z,100152.98
2022-10-23T20:25:44.169Z,100125.34
2022-10-23T20:28:15.186Z,100100.95
2022-10-23T20:30:44.767Z,100138.73
2022-10-23T20:33:13.718Z,100147.15
2022-10-23T20:35:41.876Z,100125.52
2022-10-23T20:38:12.252Z,100117.02
2022-10-23T20:40:43.979Z,100101.07
2022-10-23T20:43:12.504Z,100111.32
2022-10-23T20:45:41.979Z,100120.84
2022-10-23T20:48:09.295Z,100120.72
2022-10-23T20:50:40.545Z,100107.70
2022-10-23T20:53:17.080Z,100087.70
2022-10-23T20:55:43.579Z,100030.60
2022-10-23T20:58:09.996Z,100002.88
2022-10-23T21:00:36.361Z,99983.29
2022-10-23T21:03:05.293Z,99997.19
2022-10-23T21:05:31.984Z,100058.66
2022-10-23T21:07:58.416Z,100042.85
2022-10-23T21:10:28.950Z,100025.05
2022-10-23T21:13:00.487Z,100017.58
2022-10-23T21:15:28.599Z,100021.24
2022-10-23T21:17:56.879Z,100031.66
2022-10-23T21:20:28.703Z,100046.20
2022-10-23T21:23:03.398Z,100052.20
2022-10-23T21:25:32.842Z,100062.48
2022-10-23T21:28:03.394Z,100061.11
2022-10-23T21:30:29.859Z,100068.70
2022-10-23T21:32:56.289Z,100066.30
2022-10-23T21:35:24.309Z,100076.95
2022-10-23T21:37:53.058Z,100077.02
2022-10-23T21:40:22.234Z,100083.30
2022-10-23T21:42:48.632Z,100083.36
2022-10-23T21:45:15.347Z,100077.29
2022-10-23T21:47:45.094Z,100087.07
2022-10-23T21:50:13.053Z,100093.67
2022-10-23T21:52:42.711Z,100102.17
2022-10-23T21:55:13.113Z,100090.59
2022-10-23T21:57:47.720Z,100076.66
2022-10-23T22:00:18.117Z,100077.94
2022-10-23T22:02:44.759Z,100079.19
2022-10-23T22:05:15.953Z,100068.42
2022-10-23T22:07:55.497Z,100067.37
2022-10-23T22:10:30.561Z,100063.33
2022-10-23T22:12:58.636Z,100063.34
2022-10-23T22:15:31.892Z,100070.45
2022-10-23T22:18:00.124Z,100065.84
2022-10-23T22:20:26.642Z,100057.73
2022-10-23T22:22:53.121Z,100052.68
2022-10-23T22:25:19.983Z,100061.84
2022-10-23T22:27:49.437Z,100053.86
2022-10-23T22:30:17.616Z,100050.22
2022-10-23T22:32:47.117Z,100061.06
2022-10-23T22:35:16.890Z,100071.55
2022-10-23T22:37:50.499Z,100084.15
2022-10-23T22:40:21.888Z,100095.24
2022-10-23T22:42:50.339Z,100100.33
2022-10-23T22:45:26.696Z,100103.70
2022-10-23T22:47:53.424Z,100100.84
2022-10-23T22:50:19.882Z,100099.55
2022-10-23T22:52:46.851Z,100103.45
2022-10-23T22:55:20.632Z,100104.89
2022-10-23T22:57:47.207Z,100110.39
2022-10-23T23:00:15.933Z,100110.14
2022-10-23T23:02:47.009Z,100107.68
2022-10-23T23:05:21.104Z,100108.84
2022-10-23T23:07:54.816Z,100104.42
2022-10-23T23:10:31.283Z,100111.73
2022-10-23T23:13:05.038Z,100111.18
2022-10-23T23:15:44.163Z,100108.06
2022-10-23T23:18:13.390Z,100107.45
2022-10-23T23:20:39.992Z,100112.93
2022-10-23T23:23:06.865Z,100119.65
2022-10-23T23:25:33.356Z,100117.27
2022-10-23T23:28:02.193Z,100122.63
2022-10-23T23:30:29.300Z,100119.73
2022-10-23T23:33:02.944Z,100120.10
2022-10-23T23:35:33.238Z,100126.56
2022-10-23T23:38:03.587Z,100121.17
2022-10-23T23:40:37.120Z,100116.56
2022-10-23T23:43:09.111Z,100114.81
2022-10-23T23:45:45.758Z,100113.65
2022-10-23T23:48:12.176Z,100108.02
2022-10-23T23:50:38.680Z,100098.01
2022-10-23T23:53:05.431Z,100088.04
2022-10-23T23:55:31.884Z,100090.27
2022-10-23T23:57:58.668Z,100091.65
